createdAt,value
2022-09-21T00:00:41.453Z,0
2022-09-21T00:05:53.903Z,0
2022-09-21T00:11:06.199Z,0
2022-09-21T00:16:18.851Z,0
2022-09-21T00:21:31.274Z,0
2022-09-21T00:26:43.680Z,0
2022-09-21T00:31:56.057Z,0
2022-09-21T00:37:08.589Z,0
2022-09-21T00:42:20.953Z,0
2022-09-21T00:47:34.214Z,0
2022-09-21T00:52:45.525Z,0
2022-09-21T00:57:57.899Z,0
2022-09-21T01:03:10.238Z,0
2022-09-21T01:08:22.497Z,0
2022-09-21T01:13:34.763Z,0
2022-09-21T01:18:47.197Z,0
2022-09-21T01:23:59.501Z,0
2022-09-21T01:29:11.840Z,0
2022-09-21T01:34:24.007Z,0
2022-09-21T01:39:36.336Z,0
2022-09-21T01:44:48.610Z,0
2022-09-21T01:50:00.956Z,0
2022-09-21T01:55:13.602Z,0
2022-09-21T02:00:26.723Z,0
2022-09-21T02:05:39.039Z,0
2022-09-21T02:10:51.525Z,0
2022-09-21T02:16:03.843Z,0
2022-09-21T02:21:16.280Z,0
2022-09-21T02:26:28.571Z,0
2022-09-21T02:31:41.218Z,0
2022-09-21T02:36:53.497Z,0
2022-09-21T02:42:05.858Z,0
2022-09-21T02:47:18.050Z,0
2022-09-21T02:52:30.468Z,0
2022-09-21T02:57:43.217Z,0
2022-09-21T03:02:55.523Z,0
2022-09-21T03:08:07.831Z,0
2022-09-21T03:13:20.365Z,0
2022-09-21T03:18:32.720Z,0
2022-09-21T03:23:45.032Z,0
2022-09-21T03:28:57.630Z,0
2022-09-21T03:34:09.963Z,0
2022-09-21T03:39:22.489Z,0
2022-09-21T03:44:34.741Z,0
2022-09-21T03:49:47.006Z,0
2022-09-21T03:54:59.558Z,0
2022-09-21T04:00:11.788Z,0
2022-09-21T04:05:24.192Z,0
2022-09-21T04:10:36.612Z,0
2022-09-21T04:15:49.181Z,0
2022-09-21T04:21:01.372Z,0
2022-09-21T04:26:13.796Z,0
2022-09-21T04:31:26.538Z,0
2022-09-21T04:36:38.750Z,482
2022-09-21T04:41:51.155Z,1281
2022-09-21T04:47:03.388Z,2194
2022-09-21T04:52:18.937Z,3086
2022-09-21T04:57:28.156Z,3905
2022-09-21T05:02:40.706Z,4627
2022-09-21T05:07:53.041Z,5062
2022-09-21T05:13:05.282Z,5083
2022-09-21T05:18:17.891Z,5124
2022-09-21T05:23:30.068Z,5089
2022-09-21T05:28:42.513Z,5108
2022-09-21T05:33:54.983Z,5112
2022-09-21T05:39:07.362Z,5085
2022-09-21T05:44:19.792Z,5089
2022-09-21T05:49:32.131Z,5089
2022-09-21T05:54:44.628Z,5138
2022-09-21T05:59:57.168Z,5138
2022-09-21T06:05:09.613Z,5110
2022-09-21T06:10:22.227Z,5060
2022-09-21T06:15:34.542Z,5092
2022-09-21T06:20:46.905Z,5092
2022-09-21T06:25:59.195Z,5126
2022-09-21T06:31:11.425Z,5124
2022-09-21T06:41:36.045Z,5099
2022-09-21T06:46:48.458Z,5099
2022-09-21T06:52:04.035Z,5115
2022-09-21T06:57:16.386Z,5099
2022-09-21T07:02:28.830Z,5149
2022-09-21T07:07:41.255Z,5078
2022-09-21T07:12:53.939Z,5032
2022-09-21T07:18:06.363Z,5131
2022-09-21T07:23:18.733Z,5060
2022-09-21T07:28:31.062Z,5122
2022-09-21T07:33:43.382Z,5071
2022-09-21T07:38:55.841Z,5096
2022-09-21T07:44:08.192Z,5152
2022-09-21T07:49:20.747Z,5122
2022-09-21T07:54:33.307Z,5110
2022-09-21T07:59:45.700Z,5117
2022-09-21T08:04:58.140Z,5108
2022-09-21T08:10:10.337Z,5156
2022-09-21T08:15:44.318Z,5161
2022-09-21T08:20:35.223Z,5131
2022-09-21T08:25:47.768Z,5161
2022-09-21T08:31:00.406Z,5161
2022-09-21T08:36:12.688Z,5135
2022-09-21T08:41:25.243Z,5096
2022-09-21T08:46:37.610Z,5168
2022-09-21T08:51:50.278Z,5168
2022-09-21T08:57:05.609Z,5175
2022-09-21T09:02:15.360Z,5138
2022-09-21T09:07:27.743Z,5175
2022-09-21T09:17:53.147Z,5177
2022-09-21T09:28:17.862Z,5179
2022-09-21T09:33:30.276Z,5181
2022-09-21T09:38:42.520Z,5184
2022-09-21T09:43:54.929Z,5186
2022-09-21T09:49:07.451Z,5186
2022-09-21T09:54:20.091Z,5188
2022-09-21T09:59:32.728Z,5188
2022-09-21T10:04:45.530Z,5177
2022-09-21T10:09:57.974Z,5175
2022-09-21T10:15:10.418Z,5152
2022-09-21T10:20:22.864Z,5200
2022-09-21T10:25:39.473Z,5186
2022-09-21T10:30:47.622Z,5202
2022-09-21T10:35:59.948Z,5202
2022-09-21T10:41:12.248Z,5177
2022-09-21T10:46:24.738Z,5204
2022-09-21T10:51:37.016Z,5202
2022-09-21T10:56:49.568Z,5186
2022-09-21T11:02:01.895Z,5193
2022-09-21T11:07:14.292Z,5204
2022-09-21T11:12:26.498Z,5191
2022-09-21T11:17:38.698Z,5195
2022-09-21T11:22:54.237Z,5198
2022-09-21T11:28:03.731Z,5207
2022-09-21T11:33:16.195Z,5209
2022-09-21T11:38:32.179Z,5223
2022-09-21T11:43:41.247Z,5216
2022-09-21T11:48:53.366Z,5211
2022-09-21T11:54:05.618Z,5202
2022-09-21T11:59:17.794Z,5209
2022-09-21T12:09:42.575Z,5202
2022-09-21T12:14:54.834Z,5214
2022-09-21T12:20:07.357Z,5216
2022-09-21T12:25:19.933Z,5211
2022-09-21T12:30:32.145Z,5223
2022-09-21T12:35:44.462Z,5204
2022-09-21T12:40:56.713Z,5216
2022-09-21T12:46:09.094Z,5209
2022-09-21T12:51:21.220Z,5216
2022-09-21T12:56:33.784Z,5211
2022-09-21T13:01:46.359Z,5225
2022-09-21T13:06:58.907Z,5225
2022-09-21T13:12:11.246Z,5232
2022-09-21T13:17:23.366Z,5209
2022-09-21T13:22:35.798Z,5211
2022-09-21T13:27:48.221Z,5223
2022-09-21T13:33:00.443Z,5209
2022-09-21T13:38:12.661Z,5216
2022-09-21T13:43:24.940Z,5211
2022-09-21T13:48:37.112Z,5218
2022-09-21T13:53:49.317Z,5209
2022-09-21T13:59:01.743Z,5218
2022-09-21T14:04:14.787Z,5216
2022-09-21T14:09:27.528Z,5209
2022-09-21T14:14:40.147Z,5221
2022-09-21T14:19:52.887Z,5230
2022-09-21T14:25:05.372Z,5225
2022-09-21T14:30:17.860Z,5262
2022-09-21T14:35:33.518Z,5262
2022-09-21T14:40:42.667Z,5239
2022-09-21T14:45:55.046Z,5250
2022-09-21T14:56:19.752Z,5223
2022-09-21T15:01:31.803Z,5239
2022-09-21T15:06:43.936Z,5232
2022-09-21T15:11:56.012Z,5223
2022-09-21T15:17:08.268Z,5216
2022-09-21T15:22:20.980Z,5204
2022-09-21T15:27:33.787Z,5246
2022-09-21T15:32:46.132Z,5221
2022-09-21T15:37:58.743Z,5225
2022-09-21T15:43:11.069Z,5241
2022-09-21T15:48:23.406Z,5237
2022-09-21T15:53:35.830Z,5234
2022-09-21T15:58:48.552Z,5227
2022-09-21T16:04:01.261Z,5246
2022-09-21T16:09:13.722Z,5225
2022-09-21T16:14:26.469Z,5227
2022-09-21T16:19:39.017Z,5230
2022-09-21T16:24:51.416Z,5246
2022-09-21T16:30:03.816Z,5221
2022-09-21T16:35:16.589Z,5262
2022-09-21T16:40:28.941Z,5271
2022-09-21T16:45:41.004Z,5250
2022-09-21T16:50:53.788Z,5234
2022-09-21T16:56:06.161Z,5225
2022-09-21T17:01:18.111Z,5135
2022-09-21T17:06:30.324Z,4551
2022-09-21T17:11:42.706Z,3801
2022-09-21T17:16:55.047Z,2787
2022-09-21T17:22:07.288Z,1672
2022-09-21T17:27:19.483Z,706
2022-09-21T17:32:35.227Z,147
2022-09-21T17:37:44.057Z,0
2022-09-21T17:42:56.247Z,0
2022-09-21T17:48:08.758Z,0
2022-09-21T17:53:21.119Z,0
2022-09-21T17:58:33.426Z,0
2022-09-21T18:03:45.852Z,0
2022-09-21T18:08:58.296Z,0
2022-09-21T18:14:10.503Z,0
2022-09-21T18:19:23.111Z,0
2022-09-21T18:24:35.668Z,0
2022-09-21T18:29:47.734Z,0
2022-09-21T18:34:59.983Z,0
2022-09-21T18:40:12.359Z,0
2022-09-21T18:45:24.762Z,0
2022-09-21T18:50:36.869Z,0
2022-09-21T18:55:49.322Z,0
2022-09-21T19:01:02.029Z,0
2022-09-21T19:06:14.354Z,0
2022-09-21T19:11:26.675Z,0
2022-09-21T19:16:39.241Z,0
2022-09-21T19:21:51.725Z,0
2022-09-21T19:27:03.948Z,0
2022-09-21T19:32:16.492Z,0
2022-09-21T19:37:29.118Z,0
2022-09-21T19:42:41.458Z,0
2022-09-21T19:47:53.665Z,0
2022-09-21T19:53:06.068Z,0
2022-09-21T19:58:18.422Z,0
2022-09-21T20:03:31.821Z,0
2022-09-21T20:08:43.109Z,0
2022-09-21T20:13:55.392Z,0
2022-09-21T20:24:20.210Z,0
2022-09-21T20:29:32.708Z,0
2022-09-21T20:34:44.729Z,0
2022-09-21T20:39:57.051Z,0
2022-09-21T20:45:09.355Z,0
2022-09-21T20:50:21.511Z,0
2022-09-21T20:55:34.069Z,0
2022-09-21T21:00:46.390Z,0
2022-09-21T21:05:58.703Z,0
2022-09-21T21:11:10.883Z,0
2022-09-21T21:16:23.344Z,0
2022-09-21T21:21:35.790Z,0
2022-09-21T21:27:01.630Z,0
2022-09-21T21:32:00.632Z,0
2022-09-21T21:37:12.854Z,0
2022-09-21T21:42:25.271Z,0
2022-09-21T21:47:40.101Z,0
2022-09-21T21:52:49.940Z,0
2022-09-21T21:58:02.269Z,0
2022-09-21T22:03:14.683Z,0
2022-09-21T22:08:27.200Z,0
2022-09-21T22:13:39.723Z,0
2022-09-21T22:18:52.172Z,0
2022-09-21T22:24:04.432Z,0
2022-09-21T22:29:16.799Z,0
2022-09-21T22:34:29.091Z,0
2022-09-21T22:39:41.452Z,0
2022-09-21T22:44:54.166Z,0
2022-09-21T22:50:06.527Z,0
2022-09-21T22:55:18.832Z,0
2022-09-21T23:00:31.155Z,0
2022-09-21T23:10:56.065Z,0
2022-09-21T23:16:08.569Z,0
2022-09-21T23:21:20.944Z,0
2022-09-21T23:26:33.384Z,0
2022-09-21T23:31:46.466Z,0
2022-09-21T23:36:58.504Z,0
2022-09-21T23:42:10.769Z,0
2022-09-21T23:47:23.374Z,0
2022-09-21T23:52:35.921Z,0
2022-09-21T23:57:48.255Z,0
